Electron, Washington
Current Conditions -  °F | °C
As of 7:33 PM on Saturday 20 Dec 2014 (Local Time) from KTCM Reporting Station
Light Rain Light Rain  
Wind Chill: 54°   Ceiling: 2800
Heat Index: 54°   Visibility: 6mi
Dew Point: 54°   Wind: 16mph
Humidity: 100%   Direction: 200°SSW
Pressure: 29.5"   Gusts: 24mph
Location:  46.993°N, 122.097°W
Report Text: KTCM 210333Z AUTO 20014G21KT 6SM -RA BR SCT010 SCT018 BKN028 BKN034 OVC043 12/12 A2950 RMK AO2 CIG 028V039 BKN028 V SCT
Loading
Personal Weather Stations






























Interactive Weather Map New forecast layout! Learn more

10-Day Weather Forecast

Advertisements
Track Severe Weather on mobile